Time;durP1;ratioP1;P1;durP2;ratioP2;P2;SDS_P1;SDS_P2;PMS_P1;PMS_P2;Temp;Humidity;BMP_temperature;BMP_pressure;BME280_temperature;BME280_humidity;BME280_pressure;Samples;Min_cycle;Max_cycle;Signal;HPM_P1;HPM_P2
2023/10/04 00:02:07;;;;;;;7.53;2.22;;;13.50;99.60;;;;;;4976903;28;20058;-77
2023/10/04 00:04:34;;;;;;;10.48;2.30;;;13.50;99.40;;;;;;4975498;28;20047;-77
2023/10/04 00:07:03;;;;;;;5.72;1.70;;;13.50;99.50;;;;;;4976636;28;20125;-78
2023/10/04 00:09:29;;;;;;;9.20;1.95;;;13.50;99.50;;;;;;4959436;28;20043;-78
2023/10/04 00:11:55;;;;;;;9.65;2.22;;;13.60;99.50;;;;;;4976909;28;20082;-79
2023/10/04 00:14:22;;;;;;;6.75;2.08;;;13.50;99.50;;;;;;4976822;28;20379;-78
2023/10/04 00:16:48;;;;;;;8.68;2.83;;;13.50;99.60;;;;;;4976710;28;20533;-77
2023/10/04 00:19:14;;;;;;;9.25;1.95;;;13.50;99.70;;;;;;4976393;28;20039;-78
2023/10/04 00:21:41;;;;;;;10.82;2.70;;;13.50;99.60;;;;;;4975346;28;20446;-78
2023/10/04 00:24:09;;;;;;;7.10;2.10;;;13.50;99.60;;;;;;4959541;28;20041;-78
2023/10/04 00:26:35;;;;;;;8.10;2.45;;;13.50;99.60;;;;;;4976536;28;20094;-78
2023/10/04 00:29:04;;;;;;;9.25;2.60;;;13.50;99.70;;;;;;4976789;28;20043;-78
2023/10/04 00:31:32;;;;;;;9.10;2.90;;;13.50;99.70;;;;;;4976644;28;20047;-78
2023/10/04 00:33:58;;;;;;;11.77;2.45;;;13.40;99.70;;;;;;4976404;28;20107;-78
2023/10/04 00:36:24;;;;;;;10.40;2.28;;;13.40;99.70;;;;;;4976483;28;20063;-78
2023/10/04 00:38:50;;;;;;;7.18;1.73;;;13.40;99.70;;;;;;4976498;28;20030;-78
2023/10/04 00:41:16;;;;;;;10.23;2.25;;;13.40;99.70;;;;;;4976601;28;20034;-79
2023/10/04 00:43:51;;;;;;;6.80;1.88;;;13.40;99.70;;;;;;4976627;28;20110;-78
2023/10/04 00:46:22;;;;;;;6.18;1.70;;;13.30;99.70;;;;;;4976006;28;20114;-78
2023/10/04 00:48:49;;;;;;;8.30;2.45;;;13.40;99.70;;;;;;4975846;28;20027;-78
2023/10/04 00:51:16;;;;;;;8.38;2.05;;;13.30;99.70;;;;;;4958583;28;20043;-78
2023/10/04 00:53:42;;;;;;;7.88;2.13;;;13.30;99.80;;;;;;4958874;28;20035;-78
2023/10/04 00:56:14;;;;;;;8.18;2.63;;;13.30;99.80;;;;;;4975658;28;20027;-78
2023/10/04 00:58:42;;;;;;;8.90;2.17;;;13.30;99.90;;;;;;4976056;28;20502;-78
2023/10/04 01:01:08;;;;;;;6.93;2.10;;;13.30;99.90;;;;;;4976138;28;20546;-78
2023/10/04 01:03:36;;;;;;;7.43;2.40;;;13.30;99.90;;;;;;4974939;28;20034;-79
2023/10/04 01:06:03;;;;;;;8.75;2.47;;;13.30;99.90;;;;;;4957367;28;20034;-78
2023/10/04 01:08:29;;;;;;;10.40;2.05;;;13.30;99.90;;;;;;4974940;28;20487;-78
2023/10/04 01:10:55;;;;;;;9.07;2.28;;;13.30;99.90;;;;;;4974418;28;20042;-77
2023/10/04 01:13:22;;;;;;;15.30;3.67;;;13.30;99.90;;;;;;4975052;28;20031;-78
2023/10/04 01:15:55;;;;;;;9.63;2.55;;;13.30;99.90;;;;;;4974869;28;20043;-78
2023/10/04 01:18:22;;;;;;;13.52;2.35;;;13.30;99.90;;;;;;4974422;28;20026;-78
2023/10/04 01:20:49;;;;;;;11.52;2.83;;;13.30;99.90;;;;;;4974513;28;20035;-78
2023/10/04 01:23:15;;;;;;;9.52;1.80;;;13.30;99.90;;;;;;4957352;28;20427;-78
2023/10/04 01:25:47;;;;;;;7.88;2.38;;;13.30;99.90;;;;;;4974741;28;20058;-78
2023/10/04 01:28:17;;;;;;;14.13;1.95;;;13.30;99.90;;;;;;4974397;28;20035;-78
2023/10/04 01:30:45;;;;;;;9.18;2.35;;;13.30;99.90;;;;;;4973593;28;20090;-77
2023/10/04 01:33:18;;;;;;;4.28;1.38;;;13.30;99.90;;;;;;4974333;28;20031;-78
2023/10/04 01:35:54;;;;;;;10.65;2.58;;;13.30;99.90;;;;;;4974485;28;20038;-78
2023/10/04 01:38:33;;;;;;;7.32;2.15;;;13.30;99.90;;;;;;4974419;28;20042;-78
2023/10/04 01:40:59;;;;;;;9.48;2.80;;;13.30;99.90;;;;;;4975249;28;20023;-78
2023/10/04 01:43:25;;;;;;;8.57;3.03;;;13.30;99.90;;;;;;4974558;28;20082;-78
2023/10/04 01:45:53;;;;;;;11.00;2.03;;;13.30;99.90;;;;;;4974297;28;20483;-78
2023/10/04 01:48:19;;;;;;;11.38;2.72;;;13.30;99.90;;;;;;4973532;28;20030;-78
2023/10/04 01:50:54;;;;;;;10.90;2.53;;;13.30;99.90;;;;;;4974574;28;20039;-78
2023/10/04 01:53:22;;;;;;;11.10;2.55;;;13.30;99.90;;;;;;4974332;28;20075;-78
2023/10/04 01:55:49;;;;;;;13.30;2.78;;;13.30;99.90;;;;;;4974476;28;20039;-77
2023/10/04 01:58:15;;;;;;;10.75;2.72;;;13.30;99.90;;;;;;4974158;28;20491;-78
2023/10/04 02:00:42;;;;;;;8.15;2.40;;;13.30;99.90;;;;;;4974493;28;20482;-78
2023/10/04 02:03:09;;;;;;;9.88;2.78;;;13.30;99.90;;;;;;4935174;28;1128098;-78
2023/10/04 02:05:41;;;;;;;9.52;2.53;;;13.30;99.90;;;;;;4975262;28;20038;-78
2023/10/04 02:08:09;;;;;;;14.95;3.58;;;13.30;99.90;;;;;;4975121;28;20035;-77
2023/10/04 02:10:35;;;;;;;8.00;2.72;;;13.20;99.90;;;;;;4974815;28;20039;-77
2023/10/04 02:13:06;;;;;;;12.50;3.00;;;13.20;99.90;;;;;;4957430;28;20027;-77
2023/10/04 02:15:35;;;;;;;9.30;2.40;;;13.30;99.90;;;;;;4973519;28;20082;-77
2023/10/04 02:18:01;;;;;;;9.82;2.72;;;13.30;99.90;;;;;;4974580;28;20035;-77
2023/10/04 02:20:32;;;;;;;12.05;2.90;;;13.30;99.90;;;;;;4974676;28;20406;-77
2023/10/04 02:22:57;;;;;;;13.95;3.13;;;13.30;99.90;;;;;;4974621;28;20035;-77
2023/10/04 02:25:24;;;;;;;11.30;2.75;;;13.30;99.90;;;;;;4974880;28;20043;-78
2023/10/04 02:27:52;;;;;;;12.27;2.80;;;13.30;99.90;;;;;;4974674;28;20029;-77
2023/10/04 02:30:26;;;;;;;11.50;2.53;;;13.30;99.90;;;;;;4957082;28;20035;-78
2023/10/04 02:32:55;;;;;;;;;;;13.40;99.90;;;;;;4974457;28;20197;-77
2023/10/04 02:35:25;;;;;;;10.35;2.47;;;13.40;99.90;;;;;;4974471;28;20309;-77
2023/10/04 02:37:54;;;;;;;13.50;2.97;;;13.40;99.90;;;;;;4973042;28;20403;-77
2023/10/04 02:40:22;;;;;;;10.18;3.22;;;13.40;99.90;;;;;;4974382;28;20031;-77
2023/10/04 02:42:48;;;;;;;9.63;2.28;;;13.30;99.90;;;;;;4974246;28;20031;-77
2023/10/04 02:45:20;;;;;;;11.52;2.72;;;13.40;99.90;;;;;;4973995;28;20042;-77
2023/10/04 02:47:48;;;;;;;9.70;2.58;;;13.40;99.90;;;;;;4973839;28;20111;-77
2023/10/04 02:50:15;;;;;;;12.43;2.55;;;13.40;99.90;;;;;;4974055;28;20043;-77
2023/10/04 02:52:41;;;;;;;9.77;2.80;;;13.40;99.90;;;;;;4973161;28;20063;-78
2023/10/04 02:55:06;;;;;;;7.35;2.33;;;13.40;99.90;;;;;;4974134;28;20089;-77
2023/10/04 02:57:32;;;;;;;9.45;2.58;;;13.40;99.90;;;;;;4974549;28;20031;-76
2023/10/04 02:59:59;;;;;;;11.05;2.53;;;13.40;99.90;;;;;;4974826;28;20030;-77
2023/10/04 03:02:24;;;;;;;10.40;2.88;;;13.40;99.90;;;;;;4973244;28;20418;-77
2023/10/04 03:04:51;;;;;;;10.43;2.80;;;13.40;99.90;;;;;;4974239;28;20035;-77
2023/10/04 03:07:17;;;;;;;9.13;2.10;;;13.40;99.90;;;;;;4974056;28;20470;-77
2023/10/04 03:09:43;;;;;;;12.02;2.85;;;13.40;99.90;;;;;;4973692;28;20035;-78
2023/10/04 03:12:12;;;;;;;9.00;2.72;;;13.40;99.90;;;;;;4973904;28;20035;-77
2023/10/04 03:14:41;;;;;;;12.63;2.95;;;13.40;99.90;;;;;;4973846;28;20045;-77
2023/10/04 03:17:07;;;;;;;13.50;1.90;;;13.40;99.90;;;;;;4973735;28;20031;-76
2023/10/04 03:19:36;;;;;;;9.95;2.22;;;13.40;99.90;;;;;;4972756;28;20045;-77
2023/10/04 03:22:01;;;;;;;7.47;2.47;;;13.30;99.90;;;;;;4956729;28;20031;-77
2023/10/04 03:24:27;;;;;;;11.32;2.40;;;13.30;99.90;;;;;;4956382;28;20038;-77
2023/10/04 03:26:53;;;;;;;11.05;2.30;;;13.30;99.90;;;;;;4957281;28;20035;-77
2023/10/04 03:29:19;;;;;;;12.23;2.70;;;13.30;99.90;;;;;;4974151;28;20391;-78
2023/10/04 03:31:49;;;;;;;10.55;2.55;;;13.30;99.90;;;;;;4974021;28;20035;-77
2023/10/04 03:34:14;;;;;;;12.98;3.17;;;13.20;99.90;;;;;;4973948;28;20126;-77
2023/10/04 03:36:46;;;;;;;10.50;2.92;;;13.20;99.90;;;;;;4972267;28;20074;-77
2023/10/04 03:39:12;;;;;;;11.13;2.65;;;13.20;99.90;;;;;;4973788;28;20047;-78
2023/10/04 03:41:42;;;;;;;8.30;2.35;;;13.10;99.90;;;;;;4973654;28;20041;-77
2023/10/04 03:44:08;;;;;;;11.80;2.42;;;13.10;99.90;;;;;;4973300;28;20039;-78
2023/10/04 03:46:33;;;;;;;6.53;2.40;;;13.10;99.90;;;;;;4973810;28;20494;-77
2023/10/04 03:48:59;;;;;;;10.63;2.75;;;13.10;99.90;;;;;;4955697;28;20033;-77
2023/10/04 03:51:26;;;;;;;10.93;3.10;;;13.10;99.90;;;;;;4972625;28;20045;-77
2023/10/04 03:53:53;;;;;;;9.18;2.25;;;13.00;99.90;;;;;;4974901;28;20098;-78
2023/10/04 03:56:21;;;;;;;8.70;2.58;;;13.00;99.90;;;;;;4977184;28;20046;-77
2023/10/04 03:58:48;;;;;;;10.55;2.65;;;13.00;99.90;;;;;;4976759;28;20031;-77
2023/10/04 04:01:14;;;;;;;14.73;2.97;;;13.00;99.90;;;;;;4977425;28;20045;-77
2023/10/04 04:03:40;;;;;;;9.00;2.83;;;13.00;99.90;;;;;;4977126;28;20046;-77
2023/10/04 04:06:06;;;;;;;9.77;2.17;;;13.00;99.90;;;;;;4977020;28;20034;-79
2023/10/04 04:08:32;;;;;;;9.05;2.45;;;13.00;99.90;;;;;;4959559;28;20067;-77
2023/10/04 04:10:58;;;;;;;10.80;2.30;;;12.90;99.90;;;;;;4976937;28;20046;-77
2023/10/04 04:13:24;;;;;;;6.47;2.85;;;12.90;99.90;;;;;;4976657;28;20402;-77
2023/10/04 04:15:51;;;;;;;12.18;2.85;;;12.90;99.90;;;;;;4976808;28;20539;-78
2023/10/04 04:18:20;;;;;;;9.48;2.17;;;12.90;99.90;;;;;;4976776;28;20031;-77
2023/10/04 04:20:49;;;;;;;11.65;3.38;;;12.90;99.90;;;;;;4976622;28;20058;-78
2023/10/04 04:23:15;;;;;;;10.00;3.10;;;12.80;99.90;;;;;;4976701;28;20098;-77
2023/10/04 04:25:42;;;;;;;13.23;2.83;;;12.80;99.90;;;;;;4959185;28;20483;-78
2023/10/04 04:28:12;;;;;;;11.55;2.22;;;12.80;99.90;;;;;;4959037;28;20062;-77
2023/10/04 04:30:38;;;;;;;18.80;4.53;;;12.80;99.90;;;;;;4976501;28;20089;-77
2023/10/04 04:33:07;;;;;;;13.20;3.05;;;12.80;99.90;;;;;;4976316;28;20454;-77
2023/10/04 04:38:12;;;;;;;12.82;2.80;;;12.70;99.90;;;;;;4977014;28;20038;-79
2023/10/04 04:40:39;;;;;;;10.73;3.10;;;12.70;99.90;;;;;;4976653;28;20417;-79
2023/10/04 04:45:50;;;;;;;;;;;12.70;99.90;;;;;;4977010;28;20066;-79
2023/10/04 04:48:18;;;;;;;8.30;2.40;;;12.70;99.90;;;;;;4975910;28;19942;-78
2023/10/04 04:50:44;;;;;;;14.73;2.90;;;12.70;99.90;;;;;;4976290;28;20035;-79
2023/10/04 04:53:14;;;;;;;9.63;2.53;;;12.70;99.90;;;;;;4959013;28;20045;-79
2023/10/04 04:55:40;;;;;;;10.10;2.55;;;12.60;99.90;;;;;;4975250;28;20034;-79
2023/10/04 04:58:06;;;;;;;7.95;2.10;;;12.60;99.90;;;;;;4975549;28;20035;-79
2023/10/04 05:00:33;;;;;;;11.43;2.45;;;12.60;99.90;;;;;;4960402;28;20089;-79
2023/10/04 05:03:00;;;;;;;9.00;2.20;;;12.60;99.90;;;;;;4984295;28;20057;-79
2023/10/04 05:05:29;;;;;;;16.83;3.13;;;12.60;99.90;;;;;;4976038;28;20027;-78
2023/10/04 05:07:55;;;;;;;7.95;2.17;;;12.60;99.90;;;;;;4995005;28;20478;-79
2023/10/04 05:10:25;;;;;;;9.25;2.65;;;12.60;99.90;;;;;;4994774;28;20046;-79
2023/10/04 05:12:54;;;;;;;10.27;3.00;;;12.60;99.90;;;;;;4995508;28;20061;-79
2023/10/04 05:15:27;;;;;;;8.38;2.00;;;12.60;99.90;;;;;;4995419;28;20046;-79
2023/10/04 05:17:53;;;;;;;9.88;2.45;;;12.50;99.90;;;;;;4995440;28;20034;-80
2023/10/04 05:20:24;;;;;;;11.65;3.13;;;12.50;99.90;;;;;;4995519;28;20049;-79
2023/10/04 05:22:53;;;;;;;11.85;3.55;;;12.50;99.90;;;;;;4977491;28;20046;-80
2023/10/04 05:25:20;;;;;;;11.35;2.97;;;12.50;99.90;;;;;;4994713;28;20039;-79
2023/10/04 05:27:49;;;;;;;14.02;2.95;;;12.50;99.90;;;;;;4995312;28;20034;-78
2023/10/04 05:30:16;;;;;;;12.18;4.18;;;12.50;99.90;;;;;;4994795;28;20042;-79
2023/10/04 05:32:46;;;;;;;15.07;3.70;;;12.50;99.90;;;;;;4995331;28;20034;-80
2023/10/04 05:35:15;;;;;;;10.15;3.20;;;12.40;99.90;;;;;;4994938;28;20031;-79
2023/10/04 05:37:45;;;;;;;9.20;3.20;;;12.40;99.90;;;;;;4995318;28;20081;-80
2023/10/04 05:40:17;;;;;;;19.27;4.30;;;12.40;99.90;;;;;;4994598;28;20037;-78
2023/10/04 05:42:44;;;;;;;18.23;3.03;;;12.40;99.90;;;;;;4994943;28;20035;-79
2023/10/04 05:45:13;;;;;;;11.30;3.65;;;12.40;99.90;;;;;;4987973;28;20030;-80
2023/10/04 05:47:40;;;;;;;15.43;3.88;;;12.40;99.90;;;;;;4967105;28;20038;-80
2023/10/04 05:50:18;;;;;;;12.07;3.65;;;12.30;99.90;;;;;;4957972;28;20471;-79
2023/10/04 05:52:51;;;;;;;8.77;2.95;;;12.30;99.90;;;;;;4975283;28;20482;-79
2023/10/04 05:55:17;;;;;;;14.13;3.65;;;12.30;99.90;;;;;;4960583;28;20042;-77
2023/10/04 05:57:47;;;;;;;11.25;3.20;;;12.30;99.90;;;;;;4966759;28;20288;-80
2023/10/04 06:00:33;;;;;;;8.32;3.25;;;12.30;99.90;;;;;;4983212;28;20041;-80
2023/10/04 06:03:06;;;;;;;13.93;4.00;;;12.30;99.90;;;;;;4987104;28;20051;-80
2023/10/04 06:05:34;;;;;;;13.10;4.27;;;12.30;99.90;;;;;;4985122;28;20035;-80
2023/10/04 06:08:11;;;;;;;13.45;3.45;;;12.30;99.90;;;;;;4983463;28;20286;-80
2023/10/04 06:10:37;;;;;;;9.27;2.95;;;12.30;99.90;;;;;;4982805;28;20086;-77
2023/10/04 07:42:55;;;;;;;17.73;4.15;;;13.20;99.90;;;;;;4986098;28;20482;-78
2023/10/04 07:45:22;;;;;;;10.88;3.45;;;13.30;99.90;;;;;;4959929;28;20087;-79
2023/10/04 07:47:48;;;;;;;11.35;3.25;;;13.40;99.90;;;;;;4977358;28;20101;-79
2023/10/04 07:50:18;;;;;;;16.98;3.88;;;13.50;99.90;;;;;;4977509;28;20063;-80
2023/10/04 07:52:44;;;;;;;13.27;3.70;;;13.50;99.90;;;;;;4986143;28;20026;-80
2023/10/04 07:55:17;;;;;;;21.52;5.15;;;13.60;99.90;;;;;;4969888;28;20033;-79
2023/10/04 07:57:52;;;;;;;10.85;3.35;;;13.70;99.90;;;;;;4967266;28;20046;-80
2023/10/04 08:00:18;;;;;;;12.60;3.58;;;13.70;99.90;;;;;;4965089;28;20027;-79
2023/10/04 08:02:46;;;;;;;17.58;4.05;;;13.80;99.90;;;;;;4983987;28;20501;-79
2023/10/04 08:05:23;;;;;;;10.38;3.17;;;13.90;99.90;;;;;;4976806;28;20039;-80
2023/10/04 08:07:51;;;;;;;15.52;4.47;;;14.00;99.90;;;;;;4986152;28;20159;-79
2023/10/04 08:10:18;;;;;;;17.27;4.63;;;14.10;99.90;;;;;;4978838;28;20047;-78
2023/10/04 08:12:46;;;;;;;15.73;4.35;;;14.10;99.90;;;;;;4994226;28;20094;-79
2023/10/04 08:15:15;;;;;;;16.83;4.28;;;14.20;99.90;;;;;;4986939;28;20046;-80
2023/10/04 08:17:44;;;;;;;18.42;4.00;;;14.30;99.90;;;;;;4976599;28;20105;-78
2023/10/04 08:20:13;;;;;;;9.70;3.58;;;14.40;99.90;;;;;;4975217;28;20035;-80
2023/10/04 08:22:40;;;;;;;14.23;3.83;;;14.50;99.90;;;;;;4977023;28;20039;-79
2023/10/04 08:25:08;;;;;;;19.20;4.93;;;14.60;99.90;;;;;;4959218;28;20034;-80
2023/10/04 08:27:34;;;;;;;13.40;3.72;;;14.70;99.90;;;;;;4976912;28;20045;-78
2023/10/04 08:30:04;;;;;;;13.27;3.83;;;14.80;99.90;;;;;;4976380;28;20398;-79
2023/10/04 08:32:29;;;;;;;15.77;4.05;;;14.90;99.90;;;;;;4975422;28;20471;-78
2023/10/04 08:34:55;;;;;;;14.68;4.72;;;15.00;99.90;;;;;;4976133;28;20045;-77
2023/10/04 08:37:21;;;;;;;14.10;4.05;;;15.00;99.90;;;;;;4976105;28;20114;-77
2023/10/04 08:39:46;;;;;;;13.70;4.57;;;15.10;99.90;;;;;;4976287;28;20054;-79
2023/10/04 08:42:12;;;;;;;16.30;4.35;;;15.20;99.90;;;;;;4976249;28;20124;-82
2023/10/04 08:44:38;;;;;;;13.93;3.83;;;15.30;99.90;;;;;;4976397;28;20444;-79
2023/10/04 08:47:06;;;;;;;10.40;3.25;;;15.30;99.90;;;;;;4976054;28;20395;-80
2023/10/04 08:49:46;;;;;;;15.02;3.67;;;15.50;99.90;;;;;;4975853;28;20035;-79
2023/10/04 08:52:45;;;;;;;11.90;3.92;;;15.50;99.90;;;;;;4976196;28;20129;-80
2023/10/04 08:55:16;;;;;;;13.00;4.25;;;15.60;99.90;;;;;;4973084;28;20118;-78
2023/10/04 08:57:43;;;;;;;19.50;4.32;;;15.70;99.90;;;;;;4974787;28;20457;-80
2023/10/04 09:00:13;;;;;;;13.68;4.07;;;15.80;99.90;;;;;;4976433;28;20045;-78
2023/10/04 09:02:45;;;;;;;14.73;4.22;;;15.80;99.80;;;;;;4975843;28;20109;-80
2023/10/04 09:05:16;;;;;;;16.38;4.43;;;15.90;99.50;;;;;;4975926;28;20046;-79
2023/10/04 09:07:43;;;;;;;16.83;3.92;;;16.00;99.40;;;;;;4975963;28;20027;-80
2023/10/04 09:10:17;;;;;;;14.02;3.80;;;16.00;99.00;;;;;;4975667;28;20039;-78
2023/10/04 09:12:43;;;;;;;13.68;3.95;;;16.10;98.80;;;;;;4975571;28;20039;-78
2023/10/04 09:15:13;;;;;;;10.50;2.92;;;16.10;98.30;;;;;;4958298;28;20498;-80
2023/10/04 09:17:55;;;;;;;11.32;3.03;;;16.20;98.60;;;;;;4975378;28;20038;-79
2023/10/04 09:20:24;;;;;;;9.50;2.90;;;16.30;98.60;;;;;;4975996;28;20534;-79
2023/10/04 09:22:50;;;;;;;16.38;3.72;;;16.30;98.20;;;;;;4975497;28;20106;-79
2023/10/04 09:25:17;;;;;;;11.23;3.22;;;16.40;98.10;;;;;;4958235;28;20090;-80
2023/10/04 09:27:56;;;;;;;14.10;4.05;;;16.40;97.90;;;;;;4975318;28;20039;-80
2023/10/04 09:30:26;;;;;;;15.07;4.35;;;16.50;97.60;;;;;;4975261;28;20035;-79
2023/10/04 09:32:52;;;;;;;15.55;4.78;;;16.50;97.10;;;;;;4975134;28;20390;-79
2023/10/04 09:35:21;;;;;;;11.55;3.67;;;16.60;96.70;;;;;;4975259;28;20035;-79
2023/10/04 09:37:50;;;;;;;15.32;3.05;;;16.60;96.80;;;;;;4975247;28;20042;-80
2023/10/04 09:40:17;;;;;;;12.52;3.55;;;16.70;96.80;;;;;;4974194;28;20050;-79
2023/10/04 09:42:51;;;;;;;11.88;3.60;;;16.80;96.80;;;;;;4975254;28;20047;-80
2023/10/04 09:45:20;;;;;;;9.57;2.72;;;16.90;96.40;;;;;;4975282;28;20435;-80
2023/10/04 09:47:46;;;;;;;12.30;3.00;;;17.00;96.40;;;;;;4974884;28;20035;-79
2023/10/04 09:50:25;;;;;;;11.80;3.47;;;17.10;95.80;;;;;;4974436;28;20115;-80
2023/10/04 09:52:54;;;;;;;15.82;4.68;;;17.10;95.40;;;;;;4956538;28;20035;-80
2023/10/04 09:55:22;;;;;;;11.10;3.10;;;17.20;95.60;;;;;;4974820;28;20391;-79
2023/10/04 09:57:52;;;;;;;17.52;3.70;;;17.30;95.30;;;;;;4974822;28;20027;-79
2023/10/04 10:00:22;;;;;;;16.95;3.65;;;17.30;95.00;;;;;;4974806;28;20551;-77
2023/10/04 10:03:02;;;;;;;10.23;3.10;;;17.40;94.70;;;;;;4974529;28;20506;-78
2023/10/04 10:05:29;;;;;;;9.70;2.88;;;17.50;94.70;;;;;;4972403;28;20462;-81
2023/10/04 10:08:03;;;;;;;11.45;2.90;;;17.60;94.90;;;;;;4975047;28;20042;-78
2023/10/04 10:10:33;;;;;;;9.60;2.50;;;17.80;94.70;;;;;;4974490;28;20050;-80
2023/10/04 10:13:06;;;;;;;12.43;3.28;;;18.00;94.40;;;;;;4974695;28;20419;-82
2023/10/04 10:15:35;;;;;;;11.40;2.88;;;18.10;93.70;;;;;;4974421;28;20035;-78
2023/10/04 10:18:04;;;;;;;13.50;3.38;;;18.30;93.60;;;;;;4957063;28;20023;-79
2023/10/04 10:20:31;;;;;;;10.00;2.60;;;18.40;92.90;;;;;;4973361;28;20035;-81
2023/10/04 10:23:00;;;;;;;10.13;3.22;;;18.50;92.60;;;;;;4956892;28;20023;-80
2023/10/04 10:25:27;;;;;;;10.45;2.92;;;18.60;92.10;;;;;;4973274;28;20035;-80
2023/10/04 10:27:57;;;;;;;13.10;3.42;;;18.70;91.60;;;;;;4974153;28;20070;-79
2023/10/04 10:30:25;;;;;;;12.32;3.10;;;18.60;91.40;;;;;;4973784;28;20055;-80
2023/10/04 10:32:59;;;;;;;17.55;4.25;;;18.60;91.30;;;;;;4974610;28;20027;-80
2023/10/04 10:35:48;;;;;;;12.70;4.15;;;18.70;91.30;;;;;;4971492;28;20044;-80
2023/10/04 10:38:44;;;;;;;10.55;2.90;;;18.70;90.80;;;;;;4974437;28;20479;-80
2023/10/04 10:41:31;;;;;;;9.95;3.25;;;18.60;90.50;;;;;;4974257;28;20053;-79
2023/10/04 10:44:18;;;;;;;11.40;3.38;;;18.70;90.60;;;;;;4974657;28;20567;-80
2023/10/04 10:46:54;;;;;;;13.48;3.55;;;18.90;90.30;;;;;;4974190;28;20073;-79
2023/10/04 10:49:41;;;;;;;11.32;3.47;;;19.10;90.40;;;;;;4974487;28;20487;-82
2023/10/04 10:52:29;;;;;;;11.65;3.65;;;19.30;89.00;;;;;;4973905;28;20046;-80
2023/10/04 10:54:59;;;;;;;12.77;4.00;;;19.40;88.70;;;;;;4956805;28;20559;-79
2023/10/04 10:57:29;;;;;;;13.80;3.72;;;19.50;86.80;;;;;;4974268;28;20057;-79
2023/10/04 10:59:56;;;;;;;10.00;3.67;;;19.50;86.10;;;;;;4974395;28;20111;-81
2023/10/04 11:02:25;;;;;;;11.75;3.80;;;19.60;86.40;;;;;;4974797;28;20067;-79
2023/10/04 11:04:52;;;;;;;13.88;3.33;;;19.90;86.50;;;;;;4960185;28;20110;-80
2023/10/04 11:07:19;;;;;;;8.23;2.47;;;20.30;86.60;;;;;;4977908;28;20035;-80
2023/10/04 11:09:53;;;;;;;11.15;3.15;;;20.60;85.40;;;;;;4980210;28;20486;-80
2023/10/04 11:12:23;;;;;;;7.38;2.63;;;20.90;85.10;;;;;;4967910;28;20079;-80
2023/10/04 11:14:50;;;;;;;8.95;3.10;;;21.10;84.00;;;;;;4989492;28;20038;-82
2023/10/04 11:17:25;;;;;;;12.70;3.13;;;21.40;81.90;;;;;;4986891;28;20035;-81
2023/10/04 11:19:53;;;;;;;10.35;2.65;;;21.60;80.20;;;;;;4988315;28;20430;-81
2023/10/04 11:22:23;;;;;;;10.38;2.70;;;21.70;78.70;;;;;;4990520;28;20039;-80
2023/10/04 11:24:50;;;;;;;12.82;3.30;;;21.90;76.90;;;;;;4979968;28;20058;-79
2023/10/04 11:27:24;;;;;;;9.15;3.00;;;22.00;77.00;;;;;;4991078;28;20035;-79
2023/10/04 11:29:52;;;;;;;11.73;3.28;;;22.00;76.90;;;;;;4985953;28;20153;-81
2023/10/04 11:32:18;;;;;;;11.77;2.97;;;22.00;75.90;;;;;;4987764;28;20031;-81
2023/10/04 11:34:47;;;;;;;9.30;2.75;;;22.00;76.00;;;;;;4986628;28;20046;-81
2023/10/04 11:37:16;;;;;;;11.88;3.45;;;21.90;74.70;;;;;;4985647;28;20406;-81
2023/10/04 11:39:44;;;;;;;8.60;3.40;;;21.90;73.90;;;;;;4968855;28;20026;-80
2023/10/04 11:42:17;;;;;;;9.02;3.28;;;21.80;73.50;;;;;;4986690;28;20129;-80
2023/10/04 11:44:43;;;;;;;9.95;3.50;;;21.70;73.00;;;;;;4987759;28;20030;-81
2023/10/04 11:47:09;;;;;;;6.95;2.63;;;21.70;73.40;;;;;;4987988;28;20045;-80
2023/10/04 11:49:36;;;;;;;14.15;2.92;;;21.80;73.50;;;;;;4985405;28;20045;-81
2023/10/04 11:52:04;;;;;;;10.07;2.75;;;21.80;72.90;;;;;;4984556;28;20030;-81
2023/10/04 11:54:40;;;;;;;6.25;2.15;;;21.80;72.70;;;;;;4976185;28;20026;-81
2023/10/04 11:57:06;;;;;;;8.15;2.33;;;21.80;72.80;;;;;;4978739;28;20497;-81
2023/10/04 11:59:33;;;;;;;8.65;2.58;;;21.90;72.70;;;;;;4996956;28;20477;-81
2023/10/04 12:02:00;;;;;;;9.65;2.80;;;21.90;72.50;;;;;;4996404;28;20050;-79
2023/10/04 12:04:30;;;;;;;10.30;2.83;;;22.00;72.00;;;;;;4988648;28;20431;-80
2023/10/04 12:07:09;;;;;;;8.77;2.92;;;21.90;70.30;;;;;;4969370;28;20054;-79
2023/10/04 12:09:35;;;;;;;11.60;3.28;;;21.90;70.90;;;;;;4992675;28;20133;-80
2023/10/04 12:12:07;;;;;;;6.68;2.92;;;21.80;71.10;;;;;;4993178;28;20451;-80
2023/10/04 12:14:34;;;;;;;10.07;3.10;;;21.70;70.30;;;;;;4995803;28;20042;-81
2023/10/04 12:17:03;;;;;;;12.20;3.40;;;21.60;70.20;;;;;;4996091;28;20537;-79
2023/10/04 12:19:37;;;;;;;7.63;2.60;;;21.50;70.30;;;;;;4970223;28;20489;-80
2023/10/04 12:22:11;;;;;;;9.60;2.45;;;21.50;70.60;;;;;;4996186;28;20034;-81
2023/10/04 12:24:41;;;;;;;8.63;2.38;;;21.50;70.70;;;;;;4992908;28;20042;-79
2023/10/04 12:27:08;;;;;;;10.80;3.30;;;21.50;70.90;;;;;;4978092;28;20030;-81
2023/10/04 12:29:37;;;;;;;8.20;2.63;;;21.60;70.80;;;;;;4990913;28;20045;-80
2023/10/04 12:32:07;;;;;;;8.70;2.95;;;21.60;70.70;;;;;;4986637;28;20062;-80
2023/10/04 12:34:33;;;;;;;14.27;3.63;;;21.70;70.40;;;;;;4976528;28;20019;-81
2023/10/04 12:37:00;;;;;;;10.90;2.58;;;21.60;69.90;;;;;;4959297;28;20103;-81
2023/10/04 12:39:26;;;;;;;9.13;2.30;;;21.50;69.90;;;;;;4962392;28;20042;-80
2023/10/04 12:41:55;;;;;;;10.52;3.35;;;21.50;70.20;;;;;;4975888;28;20051;-81
2023/10/04 12:44:21;;;;;;;8.93;2.90;;;21.40;69.90;;;;;;4976097;28;20107;-79
2023/10/04 12:46:49;;;;;;;7.07;2.95;;;21.40;69.80;;;;;;4976156;28;20391;-81
2023/10/04 12:49:15;;;;;;;10.82;3.15;;;21.20;69.80;;;;;;4976135;28;20085;-80
2023/10/04 12:51:42;;;;;;;7.63;2.72;;;21.10;69.80;;;;;;4976422;28;20106;-79
2023/10/04 12:54:09;;;;;;;11.75;2.65;;;21.00;69.80;;;;;;4976146;28;20141;-79
2023/10/04 12:56:36;;;;;;;8.57;2.78;;;21.00;69.90;;;;;;4975659;28;20034;-81
2023/10/04 12:59:03;;;;;;;8.48;2.70;;;21.00;70.10;;;;;;4975757;28;20558;-81
2023/10/04 13:01:29;;;;;;;8.95;2.75;;;20.80;70.20;;;;;;4958400;28;20070;-79
2023/10/04 13:03:55;;;;;;;9.13;3.03;;;20.80;70.40;;;;;;4975756;28;20507;-79
2023/10/04 13:06:21;;;;;;;8.48;2.50;;;20.70;70.10;;;;;;4976185;28;20027;-81
2023/10/04 13:08:47;;;;;;;8.15;2.42;;;20.60;71.00;;;;;;4975878;28;20038;-80
2023/10/04 13:11:14;;;;;;;6.88;2.10;;;20.60;70.60;;;;;;4960534;28;20113;-80
2023/10/04 13:13:42;;;;;;;8.65;2.35;;;20.60;70.50;;;;;;4992075;28;20035;-80
2023/10/04 13:16:09;;;;;;;8.68;2.28;;;20.60;70.60;;;;;;4977696;28;20031;-80
2023/10/04 13:18:35;;;;;;;9.18;2.20;;;20.50;70.30;;;;;;4995115;28;20031;-81
2023/10/04 13:21:01;;;;;;;8.98;2.13;;;20.40;70.70;;;;;;4989236;28;20041;-80
2023/10/04 13:23:27;;;;;;;8.90;2.15;;;20.40;70.70;;;;;;4966506;28;20041;-80
2023/10/04 13:25:55;;;;;;;7.47;1.60;;;20.30;70.90;;;;;;4973699;28;20034;-80
2023/10/04 13:28:23;;;;;;;6.25;1.88;;;20.30;71.10;;;;;;4994593;28;20433;-81
2023/10/04 13:30:49;;;;;;;7.32;1.48;;;20.30;71.00;;;;;;4989862;28;20038;-84
2023/10/04 13:33:16;;;;;;;6.60;1.75;;;20.20;71.20;;;;;;4975569;28;20034;-80
2023/10/04 13:35:44;;;;;;;7.78;1.70;;;20.10;71.20;;;;;;4994897;28;20493;-80
2023/10/04 13:38:10;;;;;;;12.02;2.15;;;20.10;71.40;;;;;;4994456;28;20504;-80
2023/10/04 13:40:37;;;;;;;5.05;1.40;;;20.00;71.70;;;;;;4977467;28;20030;-80
2023/10/04 13:43:05;;;;;;;4.82;1.50;;;20.10;71.80;;;;;;4994636;28;20046;-79
2023/10/04 13:45:31;;;;;;;5.28;1.48;;;20.10;71.80;;;;;;4995130;28;20018;-79
2023/10/04 13:48:03;;;;;;;8.07;1.50;;;20.10;71.80;;;;;;4994886;28;20512;-80
2023/10/04 13:50:28;;;;;;;7.47;1.48;;;20.00;71.80;;;;;;4994353;28;20038;-81
2023/10/04 13:52:54;;;;;;;6.85;1.63;;;20.10;71.90;;;;;;4988375;28;20491;-79
2023/10/04 13:55:25;;;;;;;3.97;1.40;;;20.00;71.90;;;;;;4971689;28;20477;-81
2023/10/04 13:57:55;;;;;;;6.30;1.75;;;20.00;72.00;;;;;;4994386;28;20556;-80
2023/10/04 14:00:24;;;;;;;7.50;1.50;;;19.90;72.00;;;;;;4994842;28;20026;-79
2023/10/04 14:02:58;;;;;;;6.60;1.58;;;19.90;72.30;;;;;;4977154;28;20085;-79
2023/10/04 14:05:25;;;;;;;8.77;1.75;;;19.80;72.00;;;;;;4994683;28;20089;-79
2023/10/04 14:07:51;;;;;;;6.10;1.50;;;19.80;72.30;;;;;;4994224;28;20474;-80
2023/10/04 14:10:22;;;;;;;6.45;1.70;;;19.80;72.40;;;;;;4970184;28;20070;-79
2023/10/04 14:12:55;;;;;;;7.93;1.70;;;19.80;72.20;;;;;;4994165;28;20030;-79
2023/10/04 14:15:25;;;;;;;4.13;1.30;;;19.80;72.30;;;;;;4994311;28;20394;-79
2023/10/04 14:17:52;;;;;;;7.15;1.23;;;19.80;72.20;;;;;;4994082;28;20038;-79
2023/10/04 14:20:20;;;;;;;6.78;1.77;;;19.80;72.30;;;;;;4976602;28;20034;-79
2023/10/04 14:22:46;;;;;;;6.53;1.80;;;19.90;72.40;;;;;;4993566;28;20041;-79
2023/10/04 14:25:12;;;;;;;6.70;1.55;;;19.90;72.40;;;;;;4990689;28;20037;-79